createdAt,value
2022-09-04T00:00:15.643Z,7.63
2022-09-04T00:03:19.154Z,7.68
2022-09-04T00:06:02.336Z,7.57
2022-09-04T00:09:07.808Z,7.59
2022-09-04T00:12:05.106Z,7.08
2022-09-04T00:14:51.677Z,7.63
2022-09-04T00:17:37.478Z,7.05
2022-09-04T00:20:22.033Z,7.32
2022-09-04T00:23:12.452Z,7.46
2022-09-04T00:25:57.703Z,7.51
2022-09-04T00:29:06.130Z,7.49
2022-09-04T00:32:12.226Z,7.44
2022-09-04T00:35:25.198Z,7.46
2022-09-04T00:38:37.110Z,7.43
2022-09-04T00:42:03.193Z,7.32
2022-09-04T00:45:20.878Z,7.25
2022-09-04T00:48:16.795Z,7.17
2022-09-04T00:51:16.873Z,7.14
2022-09-04T00:54:30.656Z,7.08
2022-09-04T00:57:25.605Z,7.06
2022-09-04T01:00:16.656Z,6.69
2022-09-04T01:03:19.372Z,6.67
2022-09-04T01:06:19.827Z,6.58
2022-09-04T01:09:07.442Z,6.88
2022-09-04T01:12:06.130Z,6.82
2022-09-04T01:15:26.107Z,6.85
2022-09-04T01:18:00.106Z,6.85
2022-09-04T01:21:01.640Z,6.82
2022-09-04T01:24:07.878Z,6.82
2022-09-04T01:26:59.424Z,6.48
2022-09-04T01:30:09.467Z,6.80
2022-09-04T01:33:13.444Z,6.79
2022-09-04T01:35:56.123Z,6.78
2022-09-04T01:38:51.876Z,6.63
2022-09-04T01:41:38.209Z,6.70
2022-09-04T01:44:11.583Z,6.36
2022-09-04T01:47:14.997Z,6.63
2022-09-04T01:50:11.273Z,6.53
2022-09-04T01:53:18.824Z,6.29
2022-09-04T01:56:05.581Z,6.40
2022-09-04T01:58:45.361Z,6.36
2022-09-04T02:02:06.909Z,6.36
2022-09-04T02:05:05.078Z,6.31
2022-09-04T02:08:21.505Z,6.37
2022-09-04T02:11:13.546Z,6.26
2022-09-04T02:13:56.620Z,6.29
2022-09-04T02:17:08.426Z,5.90
2022-09-04T02:20:12.396Z,6.03
2022-09-04T02:23:18.192Z,5.82
2022-09-04T02:26:01.154Z,5.76
2022-09-04T02:28:50.981Z,5.76
2022-09-04T02:31:35.379Z,5.78
2022-09-04T02:34:14.734Z,5.55
2022-09-04T02:36:50.211Z,5.65
2022-09-04T02:39:36.314Z,5.66
2022-09-04T02:42:22.130Z,5.67
2022-09-04T02:45:34.627Z,5.68
2022-09-04T02:48:47.197Z,5.71
2022-09-04T02:51:48.327Z,5.68
2022-09-04T02:55:18.318Z,5.73
2022-09-04T02:58:07.960Z,5.31
2022-09-04T03:01:22.167Z,5.49
2022-09-04T03:04:32.626Z,5.46
2022-09-04T03:07:29.534Z,5.47
2022-09-04T03:10:24.779Z,5.33
2022-09-04T03:13:38.682Z,5.72
2022-09-04T03:16:53.804Z,5.65
2022-09-04T03:20:00.426Z,5.65
2022-09-04T03:22:44.089Z,5.77
2022-09-04T03:25:37.092Z,5.83
2022-09-04T03:28:12.840Z,5.92
2022-09-04T03:30:43.007Z,5.99
2022-09-04T03:33:35.033Z,5.90
2022-09-04T03:36:12.334Z,6.21
2022-09-04T03:38:48.926Z,6.36
2022-09-04T03:41:42.828Z,6.18
2022-09-04T03:44:37.489Z,6.53
2022-09-04T03:47:15.438Z,6.66
2022-09-04T03:50:13.837Z,6.79
2022-09-04T03:53:24.890Z,6.91
2022-09-04T03:56:34.287Z,7.07
2022-09-04T03:59:06.151Z,7.09
2022-09-04T04:01:53.318Z,7.16
2022-09-04T04:04:47.001Z,7.25
2022-09-04T04:07:35.721Z,7.34
2022-09-04T04:10:25.799Z,7.37
2022-09-04T04:13:37.012Z,7.38
2022-09-04T04:16:41.159Z,7.39
2022-09-04T04:19:17.991Z,7.40
2022-09-04T04:22:30.094Z,7.38
2022-09-04T04:25:25.356Z,7.40
2022-09-04T04:28:48.351Z,7.42
2022-09-04T04:31:37.197Z,7.00
2022-09-04T04:34:41.459Z,7.27
2022-09-04T04:37:43.689Z,7.40
2022-09-04T04:41:00.352Z,7.72
2022-09-04T04:44:17.628Z,7.80
2022-09-04T04:47:27.705Z,7.96
2022-09-04T04:50:22.648Z,8.10
2022-09-04T04:53:14.955Z,8.16
2022-09-04T04:55:56.006Z,8.30
2022-09-04T04:59:20.898Z,8.49
2022-09-04T05:02:09.533Z,8.68
2022-09-04T05:05:13.725Z,8.89
2022-09-04T05:08:16.714Z,9.14
2022-09-04T05:11:05.576Z,8.76
2022-09-04T05:14:01.269Z,9.31
2022-09-04T05:17:06.785Z,9.52
2022-09-04T05:20:26.079Z,9.68
2022-09-04T05:23:13.016Z,10.11
2022-09-04T05:26:17.226Z,10.46
2022-09-04T05:29:01.806Z,10.90
2022-09-04T05:31:58.479Z,11.45
2022-09-04T05:35:02.390Z,11.28
2022-09-04T05:38:06.288Z,11.88
2022-09-04T05:40:58.933Z,11.99
2022-09-04T05:43:32.555Z,12.38
2022-09-04T05:46:13.572Z,12.48
2022-09-04T05:49:09.132Z,12.74
2022-09-04T05:52:09.213Z,13.11
2022-09-04T05:55:16.251Z,13.38
2022-09-04T05:58:42.099Z,13.71
2022-09-04T06:01:36.353Z,13.62
2022-09-04T06:05:09.460Z,13.77
2022-09-04T06:08:15.774Z,14.18
2022-09-04T06:10:59.684Z,14.65
2022-09-04T06:14:08.298Z,14.79
2022-09-04T06:17:10.431Z,15.04
2022-09-04T06:20:03.176Z,15.33
2022-09-04T06:22:52.783Z,15.55
2022-09-04T06:26:02.926Z,15.52
2022-09-04T06:29:07.330Z,16.14
2022-09-04T06:32:29.940Z,16.01
2022-09-04T06:35:08.141Z,15.83
2022-09-04T06:38:30.726Z,15.83
2022-09-04T06:41:31.571Z,15.47
2022-09-04T06:44:29.086Z,15.52
2022-09-04T06:47:16.998Z,15.58
2022-09-04T06:50:45.354Z,16.02
2022-09-04T06:53:58.020Z,16.22
2022-09-04T06:56:46.175Z,16.38
2022-09-04T06:59:30.657Z,16.29
2022-09-04T07:02:38.687Z,16.67
2022-09-04T07:05:28.799Z,16.71
2022-09-04T07:08:30.676Z,16.90
2022-09-04T07:11:24.629Z,16.80
2022-09-04T07:14:20.581Z,17.16
2022-09-04T07:17:36.967Z,17.10
2022-09-04T07:20:22.818Z,17.96
2022-09-04T07:23:27.320Z,17.89
2022-09-04T07:26:37.329Z,17.60
2022-09-04T07:29:42.101Z,17.53
2022-09-04T07:32:40.301Z,17.70
2022-09-04T07:35:21.581Z,17.86
2022-09-04T07:38:33.743Z,18.12
2022-09-04T07:41:44.656Z,18.19
2022-09-04T07:44:29.806Z,18.15
2022-09-04T07:47:20.882Z,18.26
2022-09-04T07:50:11.302Z,18.30
2022-09-04T07:53:03.666Z,18.39
2022-09-04T07:55:48.585Z,18.34
2022-09-04T07:58:55.507Z,18.34
2022-09-04T08:01:54.916Z,18.53
2022-09-04T08:04:33.435Z,18.82
2022-09-04T08:07:10.777Z,19.01
2022-09-04T08:10:26.589Z,19.49
2022-09-04T08:13:14.264Z,19.16
2022-09-04T08:16:33.018Z,19.48
2022-09-04T08:19:11.592Z,19.87
2022-09-04T08:21:47.390Z,19.66
2022-09-04T08:24:58.355Z,19.68
2022-09-04T08:27:50.285Z,19.08
2022-09-04T08:30:21.868Z,19.29
2022-09-04T08:32:59.167Z,20.11
2022-09-04T08:35:41.171Z,19.60
2022-09-04T08:38:46.232Z,20.20
2022-09-04T08:41:29.187Z,19.92
2022-09-04T08:44:32.821Z,20.25
2022-09-04T08:47:17.932Z,19.99
2022-09-04T08:50:13.353Z,19.96
2022-09-04T08:53:11.834Z,20.40
2022-09-04T08:56:18.981Z,20.86
2022-09-04T08:59:01.863Z,21.14
2022-09-04T09:02:31.203Z,21.39
2022-09-04T09:05:14.898Z,21.20
2022-09-04T09:08:57.470Z,21.46
2022-09-04T09:11:41.417Z,21.48
2022-09-04T09:15:06.321Z,21.79
2022-09-04T09:17:57.050Z,21.09
2022-09-04T09:21:08.890Z,21.14
2022-09-04T09:24:24.327Z,21.73
2022-09-04T09:27:13.832Z,22.45
2022-09-04T09:30:21.104Z,22.08
2022-09-04T09:33:44.041Z,21.61
2022-09-04T09:36:37.120Z,21.73
2022-09-04T09:39:31.123Z,21.54
2022-09-04T09:42:48.551Z,22.71
2022-09-04T09:45:55.102Z,23.16
2022-09-04T09:49:00.848Z,22.82
2022-09-04T09:52:25.168Z,22.09
2022-09-04T09:55:45.790Z,21.50
2022-09-04T09:58:55.536Z,21.71
2022-09-04T10:01:26.426Z,21.45
2022-09-04T10:04:12.200Z,20.88
2022-09-04T10:07:11.404Z,20.47
2022-09-04T10:10:24.734Z,20.71
2022-09-04T10:13:35.370Z,20.79
2022-09-04T10:16:24.957Z,20.82
2022-09-04T10:19:19.198Z,20.52
2022-09-04T10:22:26.162Z,20.70
2022-09-04T10:25:09.903Z,20.83
2022-09-04T10:27:47.042Z,20.77
2022-09-04T10:30:21.525Z,20.74
2022-09-04T10:33:10.723Z,20.98
2022-09-04T10:36:04.870Z,20.66
2022-09-04T10:39:09.439Z,20.18
2022-09-04T10:42:29.262Z,19.94
2022-09-04T10:45:27.612Z,20.43
2022-09-04T10:48:17.739Z,20.23
2022-09-04T10:51:28.324Z,20.37
2022-09-04T10:54:30.550Z,20.45
2022-09-04T10:57:37.539Z,20.78
2022-09-04T11:00:14.208Z,21.00
2022-09-04T11:03:30.516Z,21.17
2022-09-04T11:06:49.448Z,20.86
2022-09-04T11:09:39.400Z,20.88
2022-09-04T11:13:00.226Z,21.17
2022-09-04T11:15:28.400Z,21.37
2022-09-04T11:18:22.420Z,21.34
2022-09-04T11:21:21.975Z,21.22
2022-09-04T11:24:26.982Z,20.92
2022-09-04T11:27:22.813Z,21.02
2022-09-04T11:29:54.694Z,21.09
2022-09-04T11:32:53.126Z,21.39
2022-09-04T11:36:23.799Z,21.14
2022-09-04T11:39:03.425Z,21.05
2022-09-04T11:42:21.394Z,20.85
2022-09-04T11:45:16.896Z,21.47
2022-09-04T11:48:09.886Z,21.52
2022-09-04T11:51:09.767Z,21.55
2022-09-04T11:53:44.415Z,21.73
2022-09-04T11:56:25.897Z,21.80
2022-09-04T11:59:04.370Z,21.59
2022-09-04T12:01:32.298Z,22.16
2022-09-04T12:04:12.138Z,22.43
2022-09-04T12:07:09.180Z,22.13
2022-09-04T12:10:21.222Z,21.89
2022-09-04T12:13:31.128Z,22.29
2022-09-04T12:16:18.606Z,22.35
2022-09-04T12:18:58.648Z,22.92
2022-09-04T12:22:09.127Z,22.58
2022-09-04T12:25:03.294Z,22.42
2022-09-04T12:28:18.607Z,22.39
2022-09-04T12:30:56.511Z,21.87
2022-09-04T12:34:05.501Z,21.61
2022-09-04T12:36:47.696Z,21.20
2022-09-04T12:40:01.575Z,20.84
2022-09-04T12:43:01.111Z,20.62
2022-09-04T12:46:00.674Z,20.56
2022-09-04T12:48:55.976Z,20.95
2022-09-04T12:51:25.386Z,20.63
2022-09-04T12:54:13.564Z,21.08
2022-09-04T12:56:53.778Z,21.53
2022-09-04T12:59:36.161Z,21.37
2022-09-04T13:02:13.251Z,21.84
2022-09-04T13:05:22.205Z,21.54
2022-09-04T13:08:18.991Z,20.87
2022-09-04T13:11:25.976Z,21.76
2022-09-04T13:14:39.680Z,21.78
2022-09-04T13:17:43.844Z,22.09
2022-09-04T13:20:48.641Z,21.42
2022-09-04T13:24:19.827Z,21.13
2022-09-04T13:27:16.352Z,21.03
2022-09-04T13:30:22.159Z,20.88
2022-09-04T13:33:39.974Z,21.43
2022-09-04T13:36:32.590Z,20.97
2022-09-04T13:39:18.804Z,21.34
2022-09-04T13:42:14.587Z,21.40
2022-09-04T13:45:26.935Z,21.65
2022-09-04T13:48:33.208Z,21.47
2022-09-04T13:51:20.270Z,21.90
2022-09-04T13:54:07.611Z,21.40
2022-09-04T13:56:49.875Z,21.75
2022-09-04T13:59:21.032Z,21.59
2022-09-04T14:01:56.406Z,21.95
2022-09-04T14:04:44.374Z,21.81
2022-09-04T14:07:36.255Z,21.45
2022-09-04T14:10:21.488Z,21.38
2022-09-04T14:13:25.804Z,21.79
2022-09-04T14:16:07.026Z,21.87
2022-09-04T14:19:15.580Z,22.13
2022-09-04T14:22:24.311Z,22.58
2022-09-04T14:25:16.032Z,22.62
2022-09-04T14:28:15.249Z,22.65
2022-09-04T14:31:34.130Z,22.56
2022-09-04T14:34:40.030Z,22.63
2022-09-04T14:37:46.577Z,22.74
2022-09-04T14:40:34.558Z,22.92
2022-09-04T14:43:44.823Z,22.36
2022-09-04T14:46:27.409Z,22.04
2022-09-04T14:49:25.264Z,22.43
2022-09-04T14:51:56.984Z,22.65
2022-09-04T14:54:33.445Z,22.41
2022-09-04T14:57:40.381Z,22.51
2022-09-04T15:00:21.066Z,22.42
2022-09-04T15:03:21.519Z,22.31
2022-09-04T15:05:57.892Z,22.43
2022-09-04T15:08:35.689Z,22.45
2022-09-04T15:11:10.634Z,22.21
2022-09-04T15:13:52.586Z,22.35
2022-09-04T15:16:31.971Z,22.31
2022-09-04T15:19:38.769Z,22.14
2022-09-04T15:22:54.009Z,22.33
2022-09-04T15:25:59.605Z,22.04
2022-09-04T15:28:53.430Z,21.99
2022-09-04T15:31:46.853Z,21.99
2022-09-04T15:34:26.056Z,22.01
2022-09-04T15:37:08.369Z,21.82
2022-09-04T15:39:46.149Z,21.66
2022-09-04T15:42:46.263Z,21.73
2022-09-04T15:45:45.037Z,21.62
2022-09-04T15:48:56.934Z,21.54
2022-09-04T15:51:37.642Z,21.51
2022-09-04T15:54:15.677Z,21.44
2022-09-04T15:57:17.509Z,21.38
2022-09-04T15:59:56.721Z,21.04
2022-09-04T16:03:09.251Z,21.22
2022-09-04T16:05:49.348Z,21.06
2022-09-04T16:08:26.494Z,21.06
2022-09-04T16:11:28.586Z,20.75
2022-09-04T16:14:11.943Z,20.42
2022-09-04T16:16:54.835Z,20.42
2022-09-04T16:19:27.963Z,20.51
2022-09-04T16:22:25.926Z,20.50
2022-09-04T16:25:47.833Z,20.38
2022-09-04T16:28:46.687Z,20.24
2022-09-04T16:31:30.319Z,19.89
2022-09-04T16:34:11.828Z,20.04
2022-09-04T16:36:48.660Z,19.77
2022-09-04T16:39:47.376Z,19.56
2022-09-04T16:42:51.710Z,19.66
2022-09-04T16:45:30.770Z,19.29
2022-09-04T16:48:12.697Z,19.44
2022-09-04T16:51:41.067Z,19.29
2022-09-04T16:54:31.996Z,19.22
2022-09-04T16:57:21.887Z,19.07
2022-09-04T17:00:14.951Z,18.40
2022-09-04T17:03:03.909Z,18.93
2022-09-04T17:05:51.763Z,18.88
2022-09-04T17:08:40.299Z,18.84
2022-09-04T17:11:26.853Z,18.48
2022-09-04T17:14:22.316Z,18.66
2022-09-04T17:17:31.331Z,18.55
2022-09-04T17:20:21.260Z,18.49
2022-09-04T17:29:02.429Z,18.39
2022-09-04T17:29:14.175Z,18.34
2022-09-04T17:29:49.385Z,18.24
2022-09-04T17:37:42.034Z,18.14
2022-09-04T17:40:36.302Z,18.06
2022-09-04T17:40:47.088Z,18.00
2022-09-04T17:42:27.007Z,17.85
2022-09-04T17:45:28.988Z,17.84
2022-09-04T17:48:30.091Z,17.70
2022-09-04T17:51:02.197Z,17.51
2022-09-04T17:53:34.942Z,17.56
2022-09-04T17:56:37.104Z,17.63
2022-09-04T17:59:29.981Z,17.59
2022-09-04T18:02:27.109Z,17.50
2022-09-04T18:05:11.859Z,17.42
2022-09-04T18:08:30.357Z,17.05
2022-09-04T18:11:18.229Z,17.21
2022-09-04T18:14:15.457Z,17.15
2022-09-04T18:17:12.612Z,16.83
2022-09-04T18:20:00.875Z,17.01
2022-09-04T18:22:56.562Z,16.95
2022-09-04T18:25:49.018Z,16.88
2022-09-04T18:28:50.762Z,16.46
2022-09-04T18:37:07.302Z,16.66
2022-09-04T18:37:21.858Z,16.65
2022-09-04T18:37:59.695Z,16.59
2022-09-04T18:45:07.214Z,16.33
2022-09-04T18:50:22.758Z,16.35
2022-09-04T18:50:44.272Z,16.38
2022-09-04T18:50:53.391Z,16.43
2022-09-04T18:52:43.703Z,16.13
2022-09-04T18:55:24.290Z,16.13
2022-09-04T18:58:02.025Z,15.81
2022-09-04T19:00:56.854Z,16.28
2022-09-04T19:03:55.241Z,16.19
2022-09-04T19:07:07.167Z,16.09
2022-09-04T19:09:56.711Z,16.10
2022-09-04T19:12:47.087Z,15.93
2022-09-04T19:15:45.071Z,15.97
2022-09-04T19:18:45.575Z,15.94
2022-09-04T19:21:57.857Z,15.90
2022-09-04T19:24:47.198Z,15.47
2022-09-04T19:27:33.399Z,15.79
2022-09-04T19:30:18.681Z,15.73
2022-09-04T19:33:39.754Z,15.70
2022-09-04T19:36:32.477Z,15.75
2022-09-04T19:45:54.911Z,15.73
2022-09-04T19:46:02.353Z,15.68
2022-09-04T19:46:29.767Z,15.65
2022-09-04T19:52:10.558Z,15.55
2022-09-04T19:53:33.024Z,15.63
2022-09-04T19:56:16.046Z,15.62
2022-09-04T19:59:22.712Z,15.55
2022-09-04T20:01:58.128Z,15.57
2022-09-04T20:04:49.604Z,15.46
2022-09-04T20:07:58.509Z,15.36
2022-09-04T20:11:01.252Z,15.35
2022-09-04T20:14:11.408Z,15.36
2022-09-04T20:17:10.004Z,15.38
2022-09-04T20:19:54.637Z,15.34
2022-09-04T20:22:45.563Z,14.75
2022-09-04T20:25:58.555Z,15.28
2022-09-04T20:29:03.197Z,15.25
2022-09-04T20:31:57.064Z,15.20
2022-09-04T20:34:53.059Z,15.08
2022-09-04T20:37:38.945Z,15.02
2022-09-04T20:40:37.362Z,15.04
2022-09-04T20:43:08.250Z,15.03
2022-09-04T20:52:46.018Z,14.97
2022-09-04T20:52:55.269Z,14.97
2022-09-04T20:52:59.846Z,14.99
2022-09-04T20:55:37.290Z,14.74
2022-09-04T21:03:14.204Z,14.97
2022-09-04T21:03:19.029Z,14.92
2022-09-04T21:05:40.576Z,14.86
2022-09-04T21:08:54.076Z,14.84
2022-09-04T21:11:47.732Z,14.82
2022-09-04T21:14:45.779Z,14.78
2022-09-04T21:17:34.717Z,14.73
2022-09-04T21:20:29.474Z,14.13
2022-09-04T21:23:12.564Z,14.65
2022-09-04T21:25:59.102Z,14.59
2022-09-04T21:29:10.749Z,14.77
2022-09-04T21:32:10.046Z,14.76
2022-09-04T21:35:15.175Z,14.73
2022-09-04T21:37:50.227Z,14.72
2022-09-04T21:40:52.686Z,14.72
2022-09-04T21:44:18.112Z,14.68
2022-09-04T21:47:16.905Z,14.63
2022-09-04T21:50:34.538Z,14.45
2022-09-04T21:53:53.359Z,14.48
2022-09-04T22:00:28.943Z,14.30
2022-09-04T22:02:39.896Z,14.27
2022-09-04T22:03:02.451Z,14.30
2022-09-04T22:06:03.830Z,14.15
2022-09-04T22:13:29.799Z,13.90
2022-09-04T22:13:40.330Z,13.86
2022-09-04T22:15:02.970Z,13.83
2022-09-04T22:18:10.184Z,13.82
2022-09-04T22:21:06.090Z,13.80
2022-09-04T22:24:13.524Z,13.80
2022-09-04T22:27:08.667Z,13.81
2022-09-04T22:30:03.240Z,13.79
2022-09-04T22:33:04.100Z,13.73
2022-09-04T22:36:13.613Z,13.63
2022-09-04T22:39:54.392Z,13.38
2022-09-04T22:42:47.665Z,13.39
2022-09-04T22:45:53.325Z,13.44
2022-09-04T22:48:30.176Z,13.41
2022-09-04T22:51:07.162Z,13.38
2022-09-04T22:54:24.234Z,13.05
2022-09-04T22:57:06.680Z,13.20
2022-09-04T23:00:15.543Z,13.16
2022-09-04T23:03:10.184Z,13.09
2022-09-04T23:06:16.207Z,13.08
2022-09-04T23:13:53.602Z,13.05
2022-09-04T23:13:58.563Z,13.03
2022-09-04T23:15:50.963Z,13.01
2022-09-04T23:24:34.348Z,13.01
2022-09-04T23:26:44.407Z,12.43
2022-09-04T23:26:49.805Z,12.94
2022-09-04T23:28:27.803Z,12.91
2022-09-04T23:31:33.601Z,12.86
2022-09-04T23:34:13.273Z,12.88
2022-09-04T23:37:21.544Z,12.93
2022-09-04T23:40:19.608Z,12.83
2022-09-04T23:43:09.486Z,12.81
2022-09-04T23:46:23.854Z,12.86
2022-09-04T23:49:27.051Z,12.83
2022-09-04T23:52:15.817Z,12.75
2022-09-04T23:55:15.803Z,12.51
2022-09-04T23:58:22.952Z,12.71
